Time;durP1;ratioP1;P1;durP2;ratioP2;P2;SDS_P1;SDS_P2;PMS_P1;PMS_P2;Temp;Humidity;BMP_temperature;BMP_pressure;BME280_temperature;BME280_humidity;BME280_pressure;Samples;Min_cycle;Max_cycle;Signal;HPM_P1;HPM_P2
2022/03/11 00:00:49;;;;;;;20.95;10.18;;;;;;;9.43;42.35;101839.19;4921726;28;20522;-50
2022/03/11 00:03:16;;;;;;;21.50;9.60;;;;;;;9.36;42.03;101838.09;4919446;28;20187;-51
2022/03/11 00:05:42;;;;;;;21.45;9.80;;;;;;;9.29;42.07;101837.00;4920392;28;20548;-54
2022/03/11 00:08:13;;;;;;;19.63;10.07;;;;;;;9.20;42.32;101843.63;4924623;28;20050;-53
2022/03/11 00:10:39;;;;;;;21.98;10.20;;;;;;;9.13;42.77;101839.03;4923471;28;20074;-53
2022/03/11 00:13:05;;;;;;;24.92;11.15;;;;;;;9.13;42.50;101839.94;4919975;28;20126;-50
2022/03/11 00:15:30;;;;;;;19.88;10.25;;;;;;;9.15;42.21;101842.59;4908889;28;20138;-49
2022/03/11 00:17:56;;;;;;;21.30;10.45;;;;;;;9.13;42.72;101839.03;4917078;28;20434;-51
2022/03/11 00:20:22;;;;;;;20.55;10.27;;;;;;;9.03;42.57;101840.41;4921823;28;20129;-51
2022/03/11 00:22:49;;;;;;;17.88;9.65;;;;;;;9.01;42.73;101831.69;4917095;28;20470;-53
2022/03/11 00:25:15;;;;;;;19.52;10.25;;;;;;;8.95;42.84;101828.88;4914893;28;20051;-52
2022/03/11 00:27:41;;;;;;;20.50;10.55;;;;;;;8.90;42.92;101830.44;4921737;28;20133;-53
2022/03/11 00:30:06;;;;;;;21.00;10.65;;;;;;;8.86;43.16;101821.63;4922606;28;20105;-52
2022/03/11 00:32:32;;;;;;;21.88;10.50;;;;;;;8.82;43.04;101824.06;4921793;28;20043;-51
2022/03/11 00:34:58;;;;;;;21.00;10.30;;;;;;;8.75;43.60;101822.97;4919338;28;20173;-51
2022/03/11 00:37:23;;;;;;;21.35;10.40;;;;;;;8.73;43.31;101822.03;4914945;28;20051;-53
2022/03/11 00:39:49;;;;;;;21.75;10.32;;;;;;;8.81;43.26;101817.09;4917003;28;20268;-53
2022/03/11 00:42:14;;;;;;;19.77;10.27;;;;;;;8.76;43.13;101814.34;4921164;28;20051;-53
2022/03/11 00:44:40;;;;;;;20.98;10.77;;;;;;;8.72;43.24;101817.66;4923204;28;20504;-51
2022/03/11 00:47:07;;;;;;;21.45;10.60;;;;;;;8.78;43.36;101822.22;4922053;28;20042;-52
2022/03/11 00:49:32;;;;;;;23.20;10.70;;;;;;;8.80;43.29;101821.41;4912452;28;20043;-53
2022/03/11 00:51:58;;;;;;;22.05;10.85;;;;;;;8.74;43.59;101813.41;4923460;28;20308;-50
2022/03/11 00:54:24;;;;;;;23.33;11.32;;;;;;;8.75;43.58;101812.56;4918732;28;20039;-56
2022/03/11 00:56:50;;;;;;;26.08;10.90;;;;;;;8.73;43.43;101806.44;4922899;28;20047;-52
2022/03/11 00:59:19;;;;;;;23.33;10.45;;;;;;;8.70;43.76;101803.72;4917970;28;20486;-53
2022/03/11 01:01:44;;;;;;;22.17;10.90;;;;;;;8.64;43.90;101800.03;4922036;28;20074;-53
2022/03/11 01:04:10;;;;;;;25.30;11.32;;;;;;;8.62;43.49;101793.88;4924497;28;20459;-53
2022/03/11 01:06:36;;;;;;;26.95;11.73;;;;;;;8.63;44.29;101788.75;4914592;28;20114;-53
2022/03/11 01:09:02;;;;;;;27.98;11.73;;;;;;;8.58;44.03;101790.28;4923722;28;20057;-50
2022/03/11 01:11:31;;;;;;;20.77;10.82;;;;;;;8.65;43.67;101781.00;4915083;28;20061;-51
2022/03/11 01:13:57;;;;;;;23.20;11.43;;;;;;;8.63;43.59;101783.53;4922645;28;20099;-53
2022/03/11 01:16:23;;;;;;;22.55;10.98;;;;;;;8.68;43.77;101778.50;4918436;28;20166;-51
2022/03/11 01:18:49;;;;;;;24.25;11.48;;;;;;;8.65;43.78;101775.81;4921669;28;20035;-52
2022/03/11 01:21:14;;;;;;;20.75;11.57;;;;;;;8.46;44.95;101775.16;4918062;28;20149;-51
2022/03/11 01:23:39;;;;;;;24.27;12.00;;;;;;;8.47;44.62;101771.72;4918522;28;20123;-52
2022/03/11 01:26:05;;;;;;;20.90;11.57;;;;;;;8.48;44.24;101770.88;4920630;28;20151;-53
2022/03/11 01:28:31;;;;;;;21.92;11.05;;;;;;;8.52;44.23;101764.09;4921544;28;20122;-52
2022/03/11 01:30:56;;;;;;;22.90;11.20;;;;;;;8.46;44.38;101758.66;4919827;28;20047;-54
2022/03/11 01:33:22;;;;;;;24.67;12.20;;;;;;;8.47;44.08;101763.94;4915811;28;20446;-53
2022/03/11 01:35:48;;;;;;;25.85;11.73;;;;;;;8.43;44.35;101750.75;4922258;28;20046;-49
2022/03/11 01:38:13;;;;;;;24.27;11.75;;;;;;;8.52;43.75;101748.50;4919713;28;20474;-54
2022/03/11 01:40:39;;;;;;;23.30;11.65;;;;;;;8.58;43.77;101742.63;4921874;28;20047;-50
2022/03/11 01:43:14;;;;;;;27.65;12.07;;;;;;;8.48;44.10;101746.59;4914982;28;20285;-52
2022/03/11 01:45:39;;;;;;;20.27;11.13;;;;;;;8.45;44.05;101743.91;4915513;28;20070;-50
2022/03/11 01:48:05;;;;;;;20.33;10.50;;;;;;;8.45;43.85;101739.59;4919782;28;20568;-51
2022/03/11 01:50:31;;;;;;;22.58;11.05;;;;;;;8.32;44.19;101737.38;4922135;28;20046;-51
2022/03/11 01:52:57;;;;;;;23.95;11.73;;;;;;;8.46;44.43;101723.19;4917931;28;20461;-50
2022/03/11 01:55:22;;;;;;;24.30;11.52;;;;;;;8.37;44.67;101717.63;4898472;28;20376;-51
2022/03/11 01:57:48;;;;;;;25.88;11.80;;;;;;;8.43;44.16;101723.06;4916798;28;20126;-53
2022/03/11 02:00:14;;;;;;;22.50;11.95;;;;;;;8.22;44.49;101731.78;4919737;28;20106;-52
2022/03/11 02:02:39;;;;;;;22.63;11.88;;;;;;;8.40;44.21;101729.88;4914864;28;20046;-52
2022/03/11 02:05:05;;;;;;;22.00;11.43;;;;;;;8.40;44.03;101716.88;4914275;28;20456;-49
2022/03/11 02:07:31;;;;;;;24.30;11.57;;;;;;;8.37;44.14;101717.63;4912147;28;20061;-52
2022/03/11 02:09:56;;;;;;;23.85;11.52;;;;;;;8.26;44.63;101715.44;4921785;28;20102;-51
2022/03/11 02:12:30;;;;;;;25.38;11.63;;;;;;;8.14;45.14;101718.50;4919895;28;20171;-51
2022/03/11 02:14:56;;;;;;;24.05;11.90;;;;;;;8.26;44.39;101715.44;4917801;28;20059;-53
2022/03/11 02:17:21;;;;;;;22.58;11.88;;;;;;;8.21;44.35;101710.09;4914432;28;20102;-53
2022/03/11 02:19:47;;;;;;;24.88;11.85;;;;;;;8.20;44.85;101704.84;4917658;28;20051;-51
2022/03/11 02:22:15;;;;;;;21.83;12.00;;;;;;;8.18;44.55;101699.59;4922000;28;20251;-54
2022/03/11 02:24:44;;;;;;;22.85;11.45;;;;;;;8.05;44.60;101706.03;4918314;28;20035;-52
2022/03/11 02:27:09;;;;;;;26.60;11.52;;;;;;;8.19;44.58;101698.75;4921596;28;20043;-52
2022/03/11 02:29:37;;;;;;;23.58;12.05;;;;;;;8.20;44.57;101695.34;4912930;28;21175;-49
2022/03/11 02:32:03;;;;;;;23.20;12.32;;;;;;;8.08;44.70;101685.41;4919030;28;20047;-52
2022/03/11 02:34:28;;;;;;;23.92;12.13;;;;;;;8.10;45.11;101681.16;4919012;28;20372;-53
2022/03/11 02:36:53;;;;;;;23.63;11.70;;;;;;;8.17;44.64;101681.38;4918710;28;20054;-51
2022/03/11 02:39:19;;;;;;;23.08;12.13;;;;;;;8.13;44.31;101682.97;4915512;28;20043;-53
2022/03/11 02:41:47;;;;;;;24.45;12.45;;;;;;;8.28;44.31;101673.13;4920383;28;20043;-54
2022/03/11 02:44:12;;;;;;;23.42;11.77;;;;;;;8.30;44.10;101681.88;4916545;28;20211;-52
2022/03/11 02:46:38;;;;;;;26.25;11.88;;;;;;;8.16;44.56;101670.09;4921880;28;20047;-53
2022/03/11 02:49:03;;;;;;;26.85;12.13;;;;;;;8.02;44.39;101677.38;4918811;28;20640;-51
2022/03/11 02:51:29;;;;;;;23.25;11.98;;;;;;;8.19;44.31;101671.91;4914128;28;20039;-53
2022/03/11 02:53:54;;;;;;;23.10;12.10;;;;;;;8.22;44.11;101672.03;4918721;28;20055;-50
2022/03/11 02:56:21;;;;;;;23.55;11.55;;;;;;;8.23;44.45;101673.81;4918944;28;20039;-50
2022/03/11 02:58:46;;;;;;;26.25;12.20;;;;;;;8.06;44.47;101674.06;4920832;28;20653;-50
2022/03/11 03:01:12;;;;;;;26.55;12.45;;;;;;;8.06;44.80;101668.88;4914577;28;20428;-52
2022/03/11 03:03:38;;;;;;;26.50;11.70;;;;;;;8.08;44.34;101663.72;4907965;28;20569;-50
2022/03/11 03:06:05;;;;;;;24.83;11.50;;;;;;;8.03;44.87;101671.38;4915583;28;20178;-53
2022/03/11 03:08:30;;;;;;;24.30;11.60;;;;;;;8.06;44.65;101660.19;4905470;28;20047;-54
2022/03/11 03:10:56;;;;;;;26.23;11.95;;;;;;;8.01;44.79;101665.22;4920902;28;20439;-50
2022/03/11 03:13:21;;;;;;;27.88;12.27;;;;;;;7.98;45.21;101654.75;4916610;28;20035;-50
2022/03/11 03:15:47;;;;;;;26.58;11.85;;;;;;;7.95;44.52;101662.41;4918462;28;20475;-53
2022/03/11 03:18:12;;;;;;;29.45;11.98;;;;;;;7.86;44.96;101658.59;4925258;28;20050;-52
2022/03/11 03:20:37;;;;;;;24.58;12.25;;;;;;;7.89;44.35;101656.09;4919018;28;20043;-50
2022/03/11 03:23:03;;;;;;;22.60;11.80;;;;;;;7.89;44.87;101649.19;4920995;28;20589;-50
2022/03/11 03:25:28;;;;;;;24.95;12.15;;;;;;;7.88;44.85;101650.03;4917540;28;20463;-53
2022/03/11 03:27:54;;;;;;;24.85;11.88;;;;;;;7.77;45.42;101653.06;4922116;28;20518;-52
2022/03/11 03:30:19;;;;;;;26.58;11.98;;;;;;;7.89;44.84;101646.59;4923547;28;20062;-51
2022/03/11 03:32:45;;;;;;;24.13;12.10;;;;;;;7.77;45.40;101643.56;4922415;28;20039;-50
2022/03/11 03:35:11;;;;;;;27.75;11.93;;;;;;;7.74;45.06;101651.25;4924629;28;20039;-52
2022/03/11 03:37:37;;;;;;;23.23;11.90;;;;;;;7.79;45.06;101644.50;4915310;28;20936;-53
2022/03/11 03:40:04;;;;;;;22.63;11.68;;;;;;;7.79;45.13;101651.41;4921587;28;20126;-52
2022/03/11 03:42:29;;;;;;;23.55;11.80;;;;;;;7.70;45.40;101646.75;4924001;28;20047;-48
2022/03/11 03:44:54;;;;;;;24.77;11.95;;;;;;;7.65;45.13;101649.19;4924443;28;20514;-51
2022/03/11 03:47:20;;;;;;;24.63;12.13;;;;;;;7.83;45.23;101635.09;4914335;28;20479;-51
2022/03/11 03:49:45;;;;;;;27.02;12.25;;;;;;;7.62;45.46;101635.22;4919884;28;20050;-51
2022/03/11 03:52:12;;;;;;;24.15;12.40;;;;;;;7.72;45.48;101635.63;4919163;28;20049;-49
2022/03/11 03:54:38;;;;;;;22.10;11.63;;;;;;;7.69;45.26;101635.47;4922239;28;20074;-52
2022/03/11 03:57:04;;;;;;;21.88;12.20;;;;;;;7.74;45.11;101635.69;4922413;28;20035;-49
2022/03/11 03:59:29;;;;;;;24.80;12.73;;;;;;;7.62;45.74;101640.41;4915429;28;20058;-52
2022/03/11 04:01:54;;;;;;;24.45;12.30;;;;;;;7.48;45.98;101631.22;4921824;28;20070;-52
2022/03/11 04:04:20;;;;;;;22.35;11.85;;;;;;;7.55;45.31;101634.09;4927166;28;20050;-49
2022/03/11 04:06:45;;;;;;;24.48;11.80;;;;;;;7.63;45.03;101621.41;4920111;28;20051;-53
2022/03/11 04:09:12;;;;;;;24.92;12.07;;;;;;;7.59;45.10;101622.13;4920913;28;20043;-52
2022/03/11 04:11:39;;;;;;;22.98;11.73;;;;;;;7.78;44.73;101623.69;4920794;28;21771;-53
2022/03/11 04:14:05;;;;;;;26.17;11.57;;;;;;;7.62;44.86;101619.66;4920617;28;20189;-52
2022/03/11 04:16:31;;;;;;;25.38;11.90;;;;;;;7.67;44.36;101624.19;4923720;28;20582;-53
2022/03/11 04:19:00;;;;;;;24.38;11.85;;;;;;;7.66;44.92;101616.34;4919596;28;20074;-51
2022/03/11 04:21:25;;;;;;;26.60;11.98;;;;;;;7.78;44.40;101614.19;4916196;28;20062;-49
2022/03/11 04:23:51;;;;;;;24.95;12.27;;;;;;;7.62;44.80;101606.69;4919880;28;20039;-51
2022/03/11 04:26:17;;;;;;;24.77;12.50;;;;;;;7.58;44.81;101608.25;4921063;28;20066;-52
2022/03/11 04:28:43;;;;;;;22.00;11.45;;;;;;;7.62;44.61;101593.69;4922751;28;20346;-51
2022/03/11 04:31:10;;;;;;;24.58;11.90;;;;;;;7.57;44.65;101603.00;4919206;28;20042;-50
2022/03/11 04:33:37;;;;;;;25.63;12.18;;;;;;;7.57;44.80;101598.69;4914429;28;20039;-49
2022/03/11 04:36:03;;;;;;;24.25;11.20;;;;;;;7.69;44.54;101601.75;4922008;28;20062;-51
2022/03/11 04:38:30;;;;;;;21.42;11.52;;;;;;;7.70;44.15;101593.13;4926971;28;20053;-52
2022/03/11 04:40:55;;;;;;;24.70;12.13;;;;;;;7.74;44.35;101595.00;4920942;28;20605;-50
2022/03/11 04:43:21;;;;;;;24.35;11.60;;;;;;;7.78;43.90;101589.94;4910595;28;20054;-52
2022/03/11 04:45:46;;;;;;;21.17;11.48;;;;;;;7.69;44.40;101585.28;4925495;28;20081;-53
2022/03/11 04:48:12;;;;;;;24.75;11.85;;;;;;;7.47;44.80;101595.72;4922481;28;20587;-54
2022/03/11 04:50:37;;;;;;;24.05;12.07;;;;;;;7.63;44.64;101595.44;4922413;28;20110;-50
2022/03/11 04:53:03;;;;;;;23.60;12.10;;;;;;;7.56;44.40;101585.69;4920874;28;20054;-50
2022/03/11 04:55:28;;;;;;;25.77;11.82;;;;;;;7.29;45.46;101589.03;4904887;28;20305;-50
2022/03/11 04:57:54;;;;;;;22.83;12.18;;;;;;;7.51;44.88;101577.72;4921998;28;20296;-51
2022/03/11 05:00:19;;;;;;;24.50;12.45;;;;;;;7.42;45.16;101584.28;4914043;28;20721;-50
2022/03/11 05:02:45;;;;;;;26.00;12.18;;;;;;;7.27;45.82;101588.06;4921420;28;20043;-52
2022/03/11 05:05:14;;;;;;;23.85;12.05;;;;;;;7.34;45.68;101584.00;4914231;28;20543;-50
2022/03/11 05:07:41;;;;;;;26.17;12.52;;;;;;;7.47;45.18;101580.16;4920033;28;20166;-51
2022/03/11 05:10:08;;;;;;;23.50;12.02;;;;;;;7.24;45.71;101579.28;4925038;28;20590;-50
2022/03/11 05:12:35;;;;;;;25.75;12.77;;;;;;;7.30;45.75;101583.00;4915886;28;20133;-50
2022/03/11 05:15:01;;;;;;;25.38;12.27;;;;;;;7.18;45.90;101582.53;4917889;28;20422;-53
2022/03/11 05:17:26;;;;;;;25.40;12.65;;;;;;;7.18;46.19;101576.47;4913077;28;20054;-52
2022/03/11 05:19:52;;;;;;;22.27;11.88;;;;;;;7.20;46.05;101580.88;4921775;28;20470;-50
2022/03/11 05:22:18;;;;;;;26.08;11.98;;;;;;;7.21;46.14;101576.56;4918314;28;20058;-51
2022/03/11 05:24:43;;;;;;;25.60;12.52;;;;;;;7.10;46.31;101583.94;4923706;28;20062;-49
2022/03/11 05:27:09;;;;;;;22.20;12.32;;;;;;;7.16;45.56;101579.00;4921394;28;20055;-52
2022/03/11 05:29:35;;;;;;;29.90;12.07;;;;;;;7.16;45.79;101580.72;4912259;28;20039;-52
2022/03/11 05:32:04;;;;;;;26.45;12.30;;;;;;;7.05;46.01;101569.94;4920245;28;20043;-56
2022/03/11 05:34:29;;;;;;;25.13;11.98;;;;;;;7.07;46.38;101575.19;4908587;28;20344;-51
2022/03/11 05:36:55;;;;;;;26.42;12.13;;;;;;;7.02;46.38;101571.50;4923413;28;20483;-49
2022/03/11 05:39:20;;;;;;;27.90;12.70;;;;;;;7.04;46.10;101575.06;4914363;28;20702;-51
2022/03/11 05:41:46;;;;;;;22.85;11.68;;;;;;;7.13;46.06;101581.50;4915995;28;20045;-49
2022/03/11 05:44:12;;;;;;;23.70;11.77;;;;;;;7.11;46.66;101579.66;4917477;28;20479;-52
2022/03/11 05:46:38;;;;;;;26.58;12.27;;;;;;;7.06;46.20;101576.88;4918054;28;20043;-49
2022/03/11 05:49:03;;;;;;;26.30;12.05;;;;;;;6.91;46.41;101569.38;4918696;28;20039;-53
2022/03/11 05:51:29;;;;;;;24.90;12.45;;;;;;;6.98;46.72;101567.91;4913806;28;20046;-50
2022/03/11 05:53:54;;;;;;;24.20;12.45;;;;;;;6.99;46.44;101567.09;4919773;28;20138;-52
2022/03/11 05:56:20;;;;;;;23.65;11.60;;;;;;;7.06;46.50;101576.88;4920408;28;20125;-53
2022/03/11 05:58:46;;;;;;;24.23;11.82;;;;;;;6.88;46.79;101576.16;4916608;28;20046;-52
2022/03/11 06:01:11;;;;;;;24.77;12.20;;;;;;;6.85;46.36;101571.75;4924067;28;20529;-50
2022/03/11 06:03:36;;;;;;;25.70;12.25;;;;;;;7.02;46.07;101574.09;4912129;28;20470;-52
2022/03/11 06:06:02;;;;;;;25.60;11.95;;;;;;;7.01;46.19;101572.34;4915941;28;20466;-52
2022/03/11 06:08:27;;;;;;;22.70;11.52;;;;;;;7.12;45.87;101568.47;4923805;28;20050;-51
2022/03/11 06:10:53;;;;;;;26.38;11.80;;;;;;;7.08;45.90;101566.56;4915585;28;20260;-53
2022/03/11 06:13:18;;;;;;;23.92;11.60;;;;;;;6.96;46.33;101559.19;4908488;28;20106;-56
2022/03/11 06:15:45;;;;;;;22.20;11.48;;;;;;;6.82;46.58;101560.38;4921403;28;20051;-52
2022/03/11 06:18:12;;;;;;;23.58;11.77;;;;;;;7.08;46.10;101551.00;4918999;28;20545;-53
2022/03/11 06:20:38;;;;;;;26.02;11.93;;;;;;;7.07;46.17;101544.06;4920082;28;20118;-51
2022/03/11 06:23:03;;;;;;;24.42;11.70;;;;;;;6.97;46.45;101541.94;4921811;28;20043;-50
2022/03/11 06:25:29;;;;;;;25.25;11.93;;;;;;;7.02;46.53;101548.16;4916383;28;20519;-50
2022/03/11 06:27:54;;;;;;;25.35;12.10;;;;;;;7.02;46.74;101542.97;4917322;28;20782;-55
2022/03/11 06:30:20;;;;;;;22.05;11.50;;;;;;;6.93;46.97;101552.19;4917259;28;20040;-51
2022/03/11 06:32:48;;;;;;;24.75;11.73;;;;;;;7.01;46.65;101547.31;4920202;28;20454;-52
2022/03/11 06:35:15;;;;;;;25.23;11.20;;;;;;;7.12;46.33;101551.19;4919936;28;20058;-49
2022/03/11 06:37:43;;;;;;;26.98;11.60;;;;;;;7.06;46.11;101555.25;4914440;28;20109;-52
2022/03/11 06:40:11;;;;;;;22.17;11.40;;;;;;;7.08;45.93;101546.69;4909228;28;20055;-49
2022/03/11 06:42:38;;;;;;;21.55;11.75;;;;;;;7.15;45.91;101545.22;4915889;28;20446;-52
2022/03/11 06:45:05;;;;;;;27.13;11.77;;;;;;;7.19;45.95;101541.94;4924845;28;20593;-53
2022/03/11 06:47:30;;;;;;;23.02;11.65;;;;;;;7.65;45.08;101544.50;4919851;28;20142;-54
2022/03/11 06:49:56;;;;;;;20.65;10.80;;;;;;;8.02;43.88;101539.75;4926391;28;20083;-49
2022/03/11 06:52:21;;;;;;;22.48;11.32;;;;;;;8.66;42.75;101543.63;4917849;28;20435;-53
2022/03/11 06:54:46;;;;;;;21.67;11.13;;;;;;;8.94;41.35;101536.72;4923737;28;20350;-50
2022/03/11 06:57:17;;;;;;;24.77;11.57;;;;;;;9.07;41.17;101540.59;4927016;28;20043;-54
2022/03/11 06:59:46;;;;;;;20.90;10.95;;;;;;;9.63;40.48;101538.75;4919990;28;20050;-49
2022/03/11 07:02:11;;;;;;;27.02;11.35;;;;;;;9.45;40.42;101533.91;4923239;28;20125;-51
2022/03/11 07:04:37;;;;;;;24.48;11.40;;;;;;;10.16;39.41;101525.44;4923830;28;20526;-51
2022/03/11 07:07:03;;;;;;;22.63;11.68;;;;;;;10.42;38.50;101527.81;4919557;28;20043;-52
2022/03/11 07:09:28;;;;;;;23.65;11.18;;;;;;;10.64;38.43;101518.78;4916180;28;20051;-53
2022/03/11 07:11:57;;;;;;;19.75;11.10;;;;;;;10.40;38.01;101519.06;4923124;28;20112;-50
2022/03/11 07:14:23;;;;;;;21.85;11.15;;;;;;;10.37;38.48;101524.22;4926179;28;20043;-50
2022/03/11 07:16:52;;;;;;;25.60;11.40;;;;;;;10.36;38.13;101519.84;4926376;28;20153;-50
2022/03/11 07:19:20;;;;;;;22.13;11.15;;;;;;;10.50;38.26;101526.25;4913224;28;20534;-54
2022/03/11 07:21:45;;;;;;;19.65;10.98;;;;;;;10.66;38.00;101525.78;4925303;28;20109;-50
2022/03/11 07:24:11;;;;;;;23.30;11.20;;;;;;;10.81;38.26;101518.31;4920934;28;20250;-54
2022/03/11 07:26:36;;;;;;;27.98;11.52;;;;;;;10.45;37.51;101525.28;4922119;28;20055;-51
2022/03/11 07:29:02;;;;;;;23.35;11.52;;;;;;;10.50;38.10;101529.75;4924645;28;20047;-49
2022/03/11 07:31:28;;;;;;;18.23;10.80;;;;;;;10.35;38.42;101529.38;4913918;28;20039;-51
2022/03/11 07:33:53;;;;;;;22.88;11.07;;;;;;;9.58;40.01;101529.91;4923804;28;20053;-53
2022/03/11 07:36:19;;;;;;;24.75;11.30;;;;;;;9.49;40.08;101532.25;4916766;28;20059;-51
2022/03/11 07:38:44;;;;;;;22.30;11.40;;;;;;;9.27;41.07;101521.22;4918962;28;20047;-52
2022/03/11 07:41:11;;;;;;;24.45;11.80;;;;;;;9.42;41.77;101518.19;4921666;28;20138;-51
2022/03/11 07:43:42;;;;;;;25.40;11.13;;;;;;;9.06;41.50;101514.53;4910891;28;20402;-51
2022/03/11 07:46:08;;;;;;;26.77;11.18;;;;;;;9.20;41.41;101514.09;4921049;28;20135;-52
2022/03/11 07:48:33;;;;;;;22.10;11.15;;;;;;;9.25;41.79;101509.03;4921960;28;20027;-52
2022/03/11 07:50:59;;;;;;;20.58;10.73;;;;;;;9.30;41.50;101504.84;4923872;28;20057;-51
2022/03/11 07:53:24;;;;;;;20.90;10.82;;;;;;;9.48;42.08;101500.13;4915074;28;20038;-49
2022/03/11 07:55:50;;;;;;;22.00;10.73;;;;;;;9.42;40.94;101507.78;4923376;28;20214;-53
2022/03/11 07:58:15;;;;;;;21.10;10.90;;;;;;;9.53;41.01;101506.34;4925748;28;20043;-51
2022/03/11 08:00:41;;;;;;;25.38;11.45;;;;;;;9.83;40.90;101502.81;4921187;28;20039;-50
2022/03/11 08:03:07;;;;;;;23.95;11.23;;;;;;;9.75;40.86;101507.84;4923283;28;20054;-51
2022/03/11 08:05:34;;;;;;;22.20;11.38;;;;;;;9.69;40.50;101500.75;4910469;28;20230;-51
2022/03/11 08:07:59;;;;;;;21.27;10.77;;;;;;;9.65;40.24;101495.38;4920502;28;20249;-49
2022/03/11 08:10:25;;;;;;;25.15;10.90;;;;;;;9.86;39.85;101498.56;4921810;28;20035;-49
2022/03/11 08:12:52;;;;;;;22.00;10.93;;;;;;;9.70;39.74;101491.19;4919641;28;20466;-50
2022/03/11 08:15:18;;;;;;;21.48;11.18;;;;;;;9.87;39.57;101484.72;4919004;28;20073;-54
2022/03/11 08:17:43;;;;;;;24.58;10.68;;;;;;;10.06;39.54;101480.84;4914369;28;20649;-52
2022/03/11 08:20:10;;;;;;;21.30;11.10;;;;;;;10.16;39.76;101482.84;4925312;28;20162;-53
2022/03/11 08:22:36;;;;;;;25.05;10.48;;;;;;;10.16;39.52;101472.41;4922549;28;20495;-51
2022/03/11 08:25:02;;;;;;;24.27;11.10;;;;;;;10.37;39.38;101488.59;4921443;28;21064;-49
2022/03/11 08:27:27;;;;;;;21.25;10.88;;;;;;;10.25;39.33;101493.50;4918640;28;20130;-52
2022/03/11 08:29:53;;;;;;;26.23;10.80;;;;;;;10.47;39.43;101474.06;4922499;28;20039;-51
2022/03/11 08:32:19;;;;;;;20.90;11.73;;;;;;;10.30;39.02;101478.00;4915879;28;20051;-53
2022/03/11 08:34:44;;;;;;;21.55;11.15;;;;;;;10.67;39.32;101475.41;4922668;28;20050;-48
2022/03/11 08:37:10;;;;;;;20.02;11.20;;;;;;;10.75;38.95;101466.00;4925895;28;20067;-49
2022/03/11 08:39:35;;;;;;;22.50;11.18;;;;;;;10.77;38.90;101474.75;4910275;28;20369;-52
2022/03/11 08:42:01;;;;;;;21.45;11.23;;;;;;;10.85;38.96;101468.00;4924254;28;20050;-54
2022/03/11 08:44:27;;;;;;;21.13;11.07;;;;;;;10.64;39.05;101474.44;4917332;28;20043;-54
2022/03/11 08:46:52;;;;;;;23.80;11.93;;;;;;;11.08;38.44;101458.03;4923828;28;20454;-54
2022/03/11 08:49:18;;;;;;;25.17;11.45;;;;;;;11.34;38.15;101462.03;4905518;28;20816;-53
2022/03/11 08:51:43;;;;;;;23.33;11.57;;;;;;;11.61;37.64;101458.19;4912397;28;20493;-51
2022/03/11 08:54:08;;;;;;;19.95;11.00;;;;;;;11.60;37.91;101454.69;4918231;28;20050;-51
2022/03/11 08:56:34;;;;;;;21.63;11.38;;;;;;;11.49;37.48;101448.38;4918444;28;21634;-50
2022/03/11 08:58:59;;;;;;;21.83;11.35;;;;;;;11.82;37.96;101457.72;4916228;28;20050;-50
2022/03/11 09:01:25;;;;;;;22.75;10.93;;;;;;;11.59;37.15;101447.69;4912533;28;20171;-53
2022/03/11 09:03:50;;;;;;;21.20;11.75;;;;;;;11.85;37.20;101444.72;4914835;28;20047;-48
2022/03/11 09:06:15;;;;;;;22.33;11.18;;;;;;;12.06;36.92;101438.13;4923178;28;20117;-50
2022/03/11 09:08:41;;;;;;;22.92;11.32;;;;;;;12.15;36.69;101443.47;4919141;28;20399;-49
2022/03/11 09:11:06;;;;;;;30.05;12.07;;;;;;;12.24;36.90;101445.38;4916143;28;20126;-49
2022/03/11 09:13:33;;;;;;;20.52;11.68;;;;;;;12.14;37.62;101430.38;4912734;28;20515;-49
2022/03/11 09:15:59;;;;;;;29.80;11.80;;;;;;;12.26;36.65;101434.94;4920215;28;20035;-51
2022/03/11 09:18:24;;;;;;;28.85;11.50;;;;;;;12.39;37.19;101429.03;4915410;28;20035;-52
2022/03/11 09:20:49;;;;;;;26.25;11.63;;;;;;;12.57;36.01;101416.22;4916883;28;20035;-50
2022/03/11 09:23:15;;;;;;;24.30;11.38;;;;;;;12.43;37.07;101423.00;4916305;28;20355;-51
2022/03/11 09:25:41;;;;;;;23.35;12.13;;;;;;;12.65;36.25;101411.97;4915440;28;21615;-50
2022/03/11 09:28:07;;;;;;;26.88;11.13;;;;;;;12.15;36.60;101426.91;4910540;28;20714;-51
2022/03/11 09:30:32;;;;;;;25.92;11.80;;;;;;;12.49;36.17;101408.28;4917667;28;20051;-49
2022/03/11 09:32:58;;;;;;;25.63;11.30;;;;;;;12.38;36.82;101415.06;4916806;28;20043;-50
2022/03/11 09:35:24;;;;;;;22.95;11.75;;;;;;;12.75;36.85;101410.34;4911825;28;20055;-51
2022/03/11 09:37:49;;;;;;;24.90;12.32;;;;;;;12.75;36.63;101410.34;4914632;28;20199;-56
2022/03/11 09:40:16;;;;;;;22.23;12.18;;;;;;;12.80;36.55;101420.03;4913873;28;20297;-55
2022/03/11 09:42:42;;;;;;;29.05;11.98;;;;;;;12.99;36.92;101406.28;4919815;28;20443;-54
2022/03/11 09:45:08;;;;;;;26.58;11.75;;;;;;;13.25;36.36;101403.13;4918012;28;20074;-49
2022/03/11 09:47:34;;;;;;;28.05;12.07;;;;;;;13.62;35.60;101404.38;4912805;28;20571;-52
2022/03/11 09:49:59;;;;;;;24.30;12.02;;;;;;;13.63;35.89;101396.56;4920530;28;20446;-52
2022/03/11 09:52:25;;;;;;;24.25;12.00;;;;;;;13.44;35.71;101405.09;4919193;28;20743;-50
2022/03/11 09:54:51;;;;;;;23.88;11.85;;;;;;;13.70;36.05;101400.09;4916847;28;20054;-53
2022/03/11 09:57:22;;;;;;;24.27;12.20;;;;;;;13.72;35.43;101396.63;4909309;28;21571;-51
2022/03/11 09:59:47;;;;;;;26.25;12.48;;;;;;;13.39;36.77;101385.84;4924234;28;20109;-50
2022/03/11 10:02:14;;;;;;;25.70;12.13;;;;;;;13.71;36.17;101380.91;4920216;28;20074;-49
2022/03/11 10:04:51;;;;;;;23.08;11.63;;;;;;;13.89;35.58;101374.94;4919498;28;20039;-50
2022/03/11 10:07:23;;;;;;;26.05;11.73;;;;;;;14.11;35.16;101368.97;4915496;28;20161;-54
2022/03/11 10:09:48;;;;;;;22.10;11.75;;;;;;;14.18;35.28;101370.78;4919201;28;20066;-50
2022/03/11 10:12:29;;;;;;;25.08;12.15;;;;;;;13.96;35.95;101366.25;4917792;28;20719;-49
2022/03/11 10:14:57;;;;;;;21.90;11.82;;;;;;;14.09;35.43;101368.94;4917237;28;20510;-52
2022/03/11 10:17:23;;;;;;;22.80;12.10;;;;;;;14.32;35.35;101366.50;4910011;28;20043;-49
2022/03/11 10:20:00;;;;;;;20.70;12.30;;;;;;;14.34;35.26;101361.25;4918666;28;20066;-48
2022/03/11 10:22:26;;;;;;;26.83;12.10;;;;;;;13.99;36.39;101368.88;4921105;28;20066;-48
2022/03/11 10:24:51;;;;;;;28.50;12.27;;;;;;;14.16;36.43;101359.38;4921519;28;20161;-49
2022/03/11 10:27:17;;;;;;;22.67;11.52;;;;;;;14.04;36.86;101375.03;4918241;28;20130;-51
2022/03/11 10:29:42;;;;;;;25.45;12.00;;;;;;;14.05;36.34;101361.94;4915758;28;20070;-50
2022/03/11 10:32:07;;;;;;;22.73;11.40;;;;;;;14.05;36.38;101354.06;4915753;28;20163;-51
2022/03/11 10:34:36;;;;;;;24.08;11.48;;;;;;;14.25;36.27;101348.97;4921785;28;20130;-50
2022/03/11 10:37:12;;;;;;;23.55;11.77;;;;;;;14.25;36.30;101350.72;4920274;28;20181;-50
2022/03/11 10:39:40;;;;;;;21.42;12.32;;;;;;;14.41;36.62;101337.72;4913381;28;20043;-52
2022/03/11 10:42:27;;;;;;;23.67;12.13;;;;;;;14.45;36.46;101341.25;4919888;28;20524;-52
2022/03/11 10:44:54;;;;;;;22.40;11.65;;;;;;;14.69;35.82;101328.22;4918632;28;20360;-53
2022/03/11 10:47:30;;;;;;;22.92;11.98;;;;;;;14.26;36.60;101334.13;4910438;28;20039;-52
2022/03/11 10:50:01;;;;;;;19.33;11.38;;;;;;;14.10;36.89;101322.63;4909830;28;20139;-51
2022/03/11 10:52:41;;;;;;;21.85;11.27;;;;;;;14.24;36.93;101334.09;4920115;28;20043;-51
2022/03/11 10:55:28;;;;;;;28.58;11.95;;;;;;;14.39;38.09;101328.09;4912485;28;20043;-54
2022/03/11 10:58:06;;;;;;;20.70;11.52;;;;;;;14.26;37.15;101326.25;4917507;28;20676;-52
2022/03/11 11:00:32;;;;;;;24.65;12.23;;;;;;;14.25;37.40;101317.50;4920030;28;20051;-51
2022/03/11 11:03:05;;;;;;;21.98;11.70;;;;;;;14.26;37.65;101319.25;4919887;28;20184;-52
2022/03/11 11:05:32;;;;;;;21.77;12.23;;;;;;;14.56;37.20;101321.19;4911362;28;20073;-49
2022/03/11 11:07:59;;;;;;;24.83;11.65;;;;;;;14.52;36.79;101325.53;4917551;28;20437;-50
2022/03/11 11:10:26;;;;;;;24.63;12.13;;;;;;;14.72;37.16;101324.72;4917897;28;20106;-53